Terminal Aerodrome Forecast
Issued by NWS

Current Version | Previous Version | Text Only | Print | Product List | Glossary On
Versions: 1 2 3 4 5 6 7 8 9 10 11 12 13 14
000
FTUS43 KMQT 112300
TAFIWD
TAF
KIWD 112338Z 1200/1224 20009G16KT P6SM BKN050
     FM120700 23005KT P6SM BKN050
     FM121100 28006KT 5SM BR BKN006
     FM121300 30008KT P6SM SCT200
      AMD NOT SKED=

USA.gov is the U.S. government's official web portal to all federal, state and local government web resources and services.